sensor_id;sensor_type;location;lat;lon;timestamp;temperature;humidity
19928;DHT22;10126;50.876;4.470;2023-04-01T00:00:54;10.00;99.90
19928;DHT22;10126;50.876;4.470;2023-04-01T00:02:54;10.00;99.90
19928;DHT22;10126;50.876;4.470;2023-04-01T00:04:55;10.00;99.90
19928;DHT22;10126;50.876;4.470;2023-04-01T00:06:56;10.00;99.90
19928;DHT22;10126;50.876;4.470;2023-04-01T00:08:57;10.00;99.90
19928;DHT22;10126;50.876;4.470;2023-04-01T00:10:58;10.00;99.90
19928;DHT22;10126;50.876;4.470;2023-04-01T00:12:58;9.90;99.90
19928;DHT22;10126;50.876;4.470;2023-04-01T00:14:59;10.00;99.90
19928;DHT22;10126;50.876;4.470;2023-04-01T00:17:00;10.00;99.90
19928;DHT22;10126;50.876;4.470;2023-04-01T00:19:01;10.00;99.90
19928;DHT22;10126;50.876;4.470;2023-04-01T00:21:01;10.00;99.90
19928;DHT22;10126;50.876;4.470;2023-04-01T00:23:02;10.00;99.90
19928;DHT22;10126;50.876;4.470;2023-04-01T00:25:04;10.00;99.90
19928;DHT22;10126;50.876;4.470;2023-04-01T00:27:05;10.00;99.90
19928;DHT22;10126;50.876;4.470;2023-04-01T00:29:06;10.00;99.90
19928;DHT22;10126;50.876;4.470;2023-04-01T00:31:09;10.00;99.90
19928;DHT22;10126;50.876;4.470;2023-04-01T00:33:12;10.10;99.90
19928;DHT22;10126;50.876;4.470;2023-04-01T00:35:13;10.10;99.90
19928;DHT22;10126;50.876;4.470;2023-04-01T00:37:14;10.10;99.90
19928;DHT22;10126;50.876;4.470;2023-04-01T00:39:14;10.10;99.90
19928;DHT22;10126;50.876;4.470;2023-04-01T00:41:16;10.10;99.90
19928;DHT22;10126;50.876;4.470;2023-04-01T00:43:19;10.00;99.90
19928;DHT22;10126;50.876;4.470;2023-04-01T00:45:35;10.00;99.90
19928;DHT22;10126;50.876;4.470;2023-04-01T00:47:36;10.00;99.90
19928;DHT22;10126;50.876;4.470;2023-04-01T00:49:40;10.00;99.90
19928;DHT22;10126;50.876;4.470;2023-04-01T00:51:43;10.00;99.90
19928;DHT22;10126;50.876;4.470;2023-04-01T00:53:48;10.00;99.90
19928;DHT22;10126;50.876;4.470;2023-04-01T00:56:21;10.00;99.90
19928;DHT22;10126;50.876;4.470;2023-04-01T00:58:24;10.10;99.90
19928;DHT22;10126;50.876;4.470;2023-04-01T01:00:26;10.00;99.90
19928;DHT22;10126;50.876;4.470;2023-04-01T01:02:26;10.00;99.90
19928;DHT22;10126;50.876;4.470;2023-04-01T01:04:32;10.10;99.90
19928;DHT22;10126;50.876;4.470;2023-04-01T01:10:56;10.00;99.90
19928;DHT22;10126;50.876;4.470;2023-04-01T01:13:16;9.90;99.90
19928;DHT22;10126;50.876;4.470;2023-04-01T01:24:49;10.00;99.90
19928;DHT22;10126;50.876;4.470;2023-04-01T01:26:57;10.00;99.90
19928;DHT22;10126;50.876;4.470;2023-04-01T01:33:30;10.00;99.90
19928;DHT22;10126;50.876;4.470;2023-04-01T01:37:44;10.00;99.90
19928;DHT22;10126;50.876;4.470;2023-04-01T01:39:51;10.00;99.90
19928;DHT22;10126;50.876;4.470;2023-04-01T01:41:54;10.10;99.90
19928;DHT22;10126;50.876;4.470;2023-04-01T01:43:56;10.00;99.90
19928;DHT22;10126;50.876;4.470;2023-04-01T01:46:00;9.90;99.90
19928;DHT22;10126;50.876;4.470;2023-04-01T01:48:04;9.90;99.90
19928;DHT22;10126;50.876;4.470;2023-04-01T01:50:07;9.90;99.90
19928;DHT22;10126;50.876;4.470;2023-04-01T01:52:09;10.00;99.90
19928;DHT22;10126;50.876;4.470;2023-04-01T01:54:14;10.00;99.90
19928;DHT22;10126;50.876;4.470;2023-04-01T01:56:17;10.00;99.90
19928;DHT22;10126;50.876;4.470;2023-04-01T01:58:30;9.90;99.90
19928;DHT22;10126;50.876;4.470;2023-04-01T02:00:33;9.80;99.90
19928;DHT22;10126;50.876;4.470;2023-04-01T02:02:34;9.80;99.90
19928;DHT22;10126;50.876;4.470;2023-04-01T02:04:37;9.80;99.90
19928;DHT22;10126;50.876;4.470;2023-04-01T02:06:44;9.90;99.90
19928;DHT22;10126;50.876;4.470;2023-04-01T02:08:58;9.90;99.90
19928;DHT22;10126;50.876;4.470;2023-04-01T02:11:12;10.00;99.90
19928;DHT22;10126;50.876;4.470;2023-04-01T02:13:17;10.00;99.90
19928;DHT22;10126;50.876;4.470;2023-04-01T02:15:21;10.00;99.90
19928;DHT22;10126;50.876;4.470;2023-04-01T02:17:24;10.00;99.90
19928;DHT22;10126;50.876;4.470;2023-04-01T02:19:33;9.90;99.90
19928;DHT22;10126;50.876;4.470;2023-04-01T02:21:37;9.90;99.90
19928;DHT22;10126;50.876;4.470;2023-04-01T02:23:38;10.00;99.90
19928;DHT22;10126;50.876;4.470;2023-04-01T02:25:41;10.00;99.90
19928;DHT22;10126;50.876;4.470;2023-04-01T02:27:44;9.90;99.90
19928;DHT22;10126;50.876;4.470;2023-04-01T02:29:45;9.80;99.90
19928;DHT22;10126;50.876;4.470;2023-04-01T02:31:46;9.80;99.90
19928;DHT22;10126;50.876;4.470;2023-04-01T02:33:48;9.80;99.90
19928;DHT22;10126;50.876;4.470;2023-04-01T02:35:51;9.70;99.90
19928;DHT22;10126;50.876;4.470;2023-04-01T02:37:54;9.70;99.90
19928;DHT22;10126;50.876;4.470;2023-04-01T02:40:00;9.70;99.90
19928;DHT22;10126;50.876;4.470;2023-04-01T02:42:00;9.60;99.90
19928;DHT22;10126;50.876;4.470;2023-04-01T02:44:01;9.70;99.90
19928;DHT22;10126;50.876;4.470;2023-04-01T02:46:02;9.60;99.90
19928;DHT22;10126;50.876;4.470;2023-04-01T02:48:03;9.70;99.90
19928;DHT22;10126;50.876;4.470;2023-04-01T02:50:04;9.70;99.90
19928;DHT22;10126;50.876;4.470;2023-04-01T02:52:05;9.70;99.90
19928;DHT22;10126;50.876;4.470;2023-04-01T02:54:09;9.80;99.90
19928;DHT22;10126;50.876;4.470;2023-04-01T02:56:09;9.70;99.90
19928;DHT22;10126;50.876;4.470;2023-04-01T02:58:10;9.70;99.90
19928;DHT22;10126;50.876;4.470;2023-04-01T03:00:11;9.60;99.90
19928;DHT22;10126;50.876;4.470;2023-04-01T03:02:12;9.60;99.90
19928;DHT22;10126;50.876;4.470;2023-04-01T03:04:13;9.60;99.90
19928;DHT22;10126;50.876;4.470;2023-04-01T03:06:15;9.70;99.90
19928;DHT22;10126;50.876;4.470;2023-04-01T03:08:16;9.60;99.90
19928;DHT22;10126;50.876;4.470;2023-04-01T03:10:17;9.60;99.90
19928;DHT22;10126;50.876;4.470;2023-04-01T03:12:18;9.60;99.90
19928;DHT22;10126;50.876;4.470;2023-04-01T03:14:18;9.60;99.90
19928;DHT22;10126;50.876;4.470;2023-04-01T03:16:19;9.60;99.90
19928;DHT22;10126;50.876;4.470;2023-04-01T03:18:20;9.60;99.90
19928;DHT22;10126;50.876;4.470;2023-04-01T03:20:20;9.60;99.90
19928;DHT22;10126;50.876;4.470;2023-04-01T03:22:21;9.70;99.90
19928;DHT22;10126;50.876;4.470;2023-04-01T03:24:22;9.70;99.90
19928;DHT22;10126;50.876;4.470;2023-04-01T03:26:22;9.70;99.90
19928;DHT22;10126;50.876;4.470;2023-04-01T03:28:23;9.80;99.90
19928;DHT22;10126;50.876;4.470;2023-04-01T03:30:23;9.80;99.90
19928;DHT22;10126;50.876;4.470;2023-04-01T03:32:24;9.80;99.90
19928;DHT22;10126;50.876;4.470;2023-04-01T03:34:25;9.80;99.90
19928;DHT22;10126;50.876;4.470;2023-04-01T03:36:26;9.70;99.90
19928;DHT22;10126;50.876;4.470;2023-04-01T03:38:26;9.60;99.90
19928;DHT22;10126;50.876;4.470;2023-04-01T03:40:27;9.70;99.90
19928;DHT22;10126;50.876;4.470;2023-04-01T03:42:29;9.70;99.90
19928;DHT22;10126;50.876;4.470;2023-04-01T03:44:32;9.70;99.90
19928;DHT22;10126;50.876;4.470;2023-04-01T03:46:33;9.70;99.90
19928;DHT22;10126;50.876;4.470;2023-04-01T03:48:34;9.70;99.90
19928;DHT22;10126;50.876;4.470;2023-04-01T03:50:35;9.70;99.90
19928;DHT22;10126;50.876;4.470;2023-04-01T03:52:38;9.70;99.90
19928;DHT22;10126;50.876;4.470;2023-04-01T03:54:39;9.70;99.90
19928;DHT22;10126;50.876;4.470;2023-04-01T03:56:40;9.70;99.90
19928;DHT22;10126;50.876;4.470;2023-04-01T03:58:41;9.60;99.90
19928;DHT22;10126;50.876;4.470;2023-04-01T04:00:41;9.60;99.90
19928;DHT22;10126;50.876;4.470;2023-04-01T04:02:42;9.60;99.90
19928;DHT22;10126;50.876;4.470;2023-04-01T04:04:43;9.70;99.90
19928;DHT22;10126;50.876;4.470;2023-04-01T04:06:43;9.70;99.90
19928;DHT22;10126;50.876;4.470;2023-04-01T04:08:44;9.60;99.90
19928;DHT22;10126;50.876;4.470;2023-04-01T04:10:45;9.60;99.90
19928;DHT22;10126;50.876;4.470;2023-04-01T04:12:46;9.70;99.90
19928;DHT22;10126;50.876;4.470;2023-04-01T04:14:47;9.80;99.90
19928;DHT22;10126;50.876;4.470;2023-04-01T04:16:47;9.80;99.90
19928;DHT22;10126;50.876;4.470;2023-04-01T04:18:48;9.80;99.90
19928;DHT22;10126;50.876;4.470;2023-04-01T04:20:49;9.70;99.90
19928;DHT22;10126;50.876;4.470;2023-04-01T04:22:51;9.70;99.90
19928;DHT22;10126;50.876;4.470;2023-04-01T04:24:52;9.80;99.90
19928;DHT22;10126;50.876;4.470;2023-04-01T04:26:52;9.70;99.90
19928;DHT22;10126;50.876;4.470;2023-04-01T04:28:54;9.70;99.90
19928;DHT22;10126;50.876;4.470;2023-04-01T04:30:55;9.60;99.90
19928;DHT22;10126;50.876;4.470;2023-04-01T04:32:56;9.70;99.90
19928;DHT22;10126;50.876;4.470;2023-04-01T04:34:57;9.70;99.90
19928;DHT22;10126;50.876;4.470;2023-04-01T04:36:57;9.70;99.90
19928;DHT22;10126;50.876;4.470;2023-04-01T04:38:58;9.70;99.90
19928;DHT22;10126;50.876;4.470;2023-04-01T04:41:02;9.70;99.90
19928;DHT22;10126;50.876;4.470;2023-04-01T04:43:03;9.70;99.90
19928;DHT22;10126;50.876;4.470;2023-04-01T04:45:04;9.60;99.90
19928;DHT22;10126;50.876;4.470;2023-04-01T04:47:04;9.60;99.90
19928;DHT22;10126;50.876;4.470;2023-04-01T04:49:06;9.60;99.90
19928;DHT22;10126;50.876;4.470;2023-04-01T04:51:06;9.60;99.90
19928;DHT22;10126;50.876;4.470;2023-04-01T04:53:10;9.70;99.90
19928;DHT22;10126;50.876;4.470;2023-04-01T04:55:10;9.60;99.90
19928;DHT22;10126;50.876;4.470;2023-04-01T04:57:11;9.60;99.90
19928;DHT22;10126;50.876;4.470;2023-04-01T04:59:12;9.60;99.90
19928;DHT22;10126;50.876;4.470;2023-04-01T05:01:15;9.60;99.90
19928;DHT22;10126;50.876;4.470;2023-04-01T05:03:16;9.70;99.90
19928;DHT22;10126;50.876;4.470;2023-04-01T05:05:16;9.70;99.90
19928;DHT22;10126;50.876;4.470;2023-04-01T05:07:17;9.60;99.90
19928;DHT22;10126;50.876;4.470;2023-04-01T05:09:18;9.50;99.90
19928;DHT22;10126;50.876;4.470;2023-04-01T05:11:19;9.60;99.90
19928;DHT22;10126;50.876;4.470;2023-04-01T05:13:21;9.60;99.90
19928;DHT22;10126;50.876;4.470;2023-04-01T05:15:22;9.80;99.90
19928;DHT22;10126;50.876;4.470;2023-04-01T05:17:23;9.70;99.90
19928;DHT22;10126;50.876;4.470;2023-04-01T05:19:23;9.70;99.90
19928;DHT22;10126;50.876;4.470;2023-04-01T05:21:24;9.60;99.90
19928;DHT22;10126;50.876;4.470;2023-04-01T05:23:25;9.70;99.90
19928;DHT22;10126;50.876;4.470;2023-04-01T05:25:25;9.70;99.90
19928;DHT22;10126;50.876;4.470;2023-04-01T05:27:26;9.70;99.90
19928;DHT22;10126;50.876;4.470;2023-04-01T05:29:27;9.80;99.90
19928;DHT22;10126;50.876;4.470;2023-04-01T05:31:27;9.70;99.90
19928;DHT22;10126;50.876;4.470;2023-04-01T05:33:28;9.80;99.90
19928;DHT22;10126;50.876;4.470;2023-04-01T05:35:29;9.80;99.90
19928;DHT22;10126;50.876;4.470;2023-04-01T05:37:30;9.70;99.90
19928;DHT22;10126;50.876;4.470;2023-04-01T05:39:31;9.70;99.90
19928;DHT22;10126;50.876;4.470;2023-04-01T05:41:31;9.70;99.90
19928;DHT22;10126;50.876;4.470;2023-04-01T05:43:38;9.70;99.90
19928;DHT22;10126;50.876;4.470;2023-04-01T05:45:39;9.70;99.90
19928;DHT22;10126;50.876;4.470;2023-04-01T05:47:40;9.60;99.90
19928;DHT22;10126;50.876;4.470;2023-04-01T05:49:40;9.50;99.90
19928;DHT22;10126;50.876;4.470;2023-04-01T05:51:41;9.60;99.90
19928;DHT22;10126;50.876;4.470;2023-04-01T05:53:42;9.60;99.90
19928;DHT22;10126;50.876;4.470;2023-04-01T05:55:43;9.60;99.90
19928;DHT22;10126;50.876;4.470;2023-04-01T05:57:45;9.60;99.90
19928;DHT22;10126;50.876;4.470;2023-04-01T05:59:46;9.60;99.90
19928;DHT22;10126;50.876;4.470;2023-04-01T06:01:47;9.40;99.90
19928;DHT22;10126;50.876;4.470;2023-04-01T06:03:47;9.40;99.90
19928;DHT22;10126;50.876;4.470;2023-04-01T06:05:48;9.40;99.90
19928;DHT22;10126;50.876;4.470;2023-04-01T06:07:52;9.40;99.90
19928;DHT22;10126;50.876;4.470;2023-04-01T06:09:55;9.40;99.90
19928;DHT22;10126;50.876;4.470;2023-04-01T06:12:40;9.40;99.90
19928;DHT22;10126;50.876;4.470;2023-04-01T06:30:44;9.60;99.90
19928;DHT22;10126;50.876;4.470;2023-04-01T06:32:57;9.50;99.90
19928;DHT22;10126;50.876;4.470;2023-04-01T06:40:36;9.60;99.90
19928;DHT22;10126;50.876;4.470;2023-04-01T06:42:51;9.70;99.90
19928;DHT22;10126;50.876;4.470;2023-04-01T06:45:13;9.60;99.90
19928;DHT22;10126;50.876;4.470;2023-04-01T06:52:02;9.50;99.90
19928;DHT22;10126;50.876;4.470;2023-04-01T06:54:16;9.60;99.90
19928;DHT22;10126;50.876;4.470;2023-04-01T06:56:21;9.60;99.90
19928;DHT22;10126;50.876;4.470;2023-04-01T06:58:41;9.50;99.90
19928;DHT22;10126;50.876;4.470;2023-04-01T07:00:44;9.60;99.90
19928;DHT22;10126;50.876;4.470;2023-04-01T07:05:20;9.70;99.90
19928;DHT22;10126;50.876;4.470;2023-04-01T07:09:38;9.60;99.90
19928;DHT22;10126;50.876;4.470;2023-04-01T07:11:40;9.70;99.90
19928;DHT22;10126;50.876;4.470;2023-04-01T07:18:31;9.60;99.90
19928;DHT22;10126;50.876;4.470;2023-04-01T07:20:35;9.60;99.90
19928;DHT22;10126;50.876;4.470;2023-04-01T07:22:42;9.80;99.90
19928;DHT22;10126;50.876;4.470;2023-04-01T07:24:45;9.80;99.90
19928;DHT22;10126;50.876;4.470;2023-04-01T07:26:47;9.90;99.90
19928;DHT22;10126;50.876;4.470;2023-04-01T07:28:51;9.70;99.90
19928;DHT22;10126;50.876;4.470;2023-04-01T07:31:18;9.60;99.90
19928;DHT22;10126;50.876;4.470;2023-04-01T07:33:28;9.70;99.90
19928;DHT22;10126;50.876;4.470;2023-04-01T07:35:45;9.70;99.90
19928;DHT22;10126;50.876;4.470;2023-04-01T07:40:08;9.70;99.90
19928;DHT22;10126;50.876;4.470;2023-04-01T07:44:31;9.70;99.90
19928;DHT22;10126;50.876;4.470;2023-04-01T07:46:53;9.70;99.90
19928;DHT22;10126;50.876;4.470;2023-04-01T07:51:02;9.70;99.90
19928;DHT22;10126;50.876;4.470;2023-04-01T08:01:00;9.70;99.90
19928;DHT22;10126;50.876;4.470;2023-04-01T08:03:23;9.90;99.90
19928;DHT22;10126;50.876;4.470;2023-04-01T08:05:30;9.90;99.90
19928;DHT22;10126;50.876;4.470;2023-04-01T08:07:51;9.90;99.90
19928;DHT22;10126;50.876;4.470;2023-04-01T08:10:22;9.90;99.90
19928;DHT22;10126;50.876;4.470;2023-04-01T08:21:11;10.10;99.90
19928;DHT22;10126;50.876;4.470;2023-04-01T08:23:21;10.10;99.90
19928;DHT22;10126;50.876;4.470;2023-04-01T08:25:26;10.20;99.90
19928;DHT22;10126;50.876;4.470;2023-04-01T08:27:44;10.10;99.90
19928;DHT22;10126;50.876;4.470;2023-04-01T08:29:59;10.20;99.90
19928;DHT22;10126;50.876;4.470;2023-04-01T08:32:18;10.20;99.90
19928;DHT22;10126;50.876;4.470;2023-04-01T08:37:21;10.40;99.90
19928;DHT22;10126;50.876;4.470;2023-04-01T08:39:32;10.30;99.90
19928;DHT22;10126;50.876;4.470;2023-04-01T09:00:56;10.40;99.90
19928;DHT22;10126;50.876;4.470;2023-04-01T09:16:24;10.60;99.90
19928;DHT22;10126;50.876;4.470;2023-04-01T09:18:48;10.50;99.90
19928;DHT22;10126;50.876;4.470;2023-04-01T09:21:02;10.60;99.90
19928;DHT22;10126;50.876;4.470;2023-04-01T09:23:28;10.60;99.90
19928;DHT22;10126;50.876;4.470;2023-04-01T09:33:08;10.80;99.90
19928;DHT22;10126;50.876;4.470;2023-04-01T09:35:49;10.70;99.90
19928;DHT22;10126;50.876;4.470;2023-04-01T09:38:12;10.70;99.90
19928;DHT22;10126;50.876;4.470;2023-04-01T10:25:07;10.70;99.90
19928;DHT22;10126;50.876;4.470;2023-04-01T10:54:13;11.50;99.90
19928;DHT22;10126;50.876;4.470;2023-04-01T10:58:36;11.30;99.90
19928;DHT22;10126;50.876;4.470;2023-04-01T11:01:22;11.10;99.90
19928;DHT22;10126;50.876;4.470;2023-04-01T11:14:02;11.20;99.90
19928;DHT22;10126;50.876;4.470;2023-04-01T11:16:51;11.30;99.90
19928;DHT22;10126;50.876;4.470;2023-04-01T11:46:20;11.80;99.90
19928;DHT22;10126;50.876;4.470;2023-04-01T11:58:56;11.50;99.90
19928;DHT22;10126;50.876;4.470;2023-04-01T12:09:18;11.50;99.90
19928;DHT22;10126;50.876;4.470;2023-04-01T12:14:03;11.40;99.90
19928;DHT22;10126;50.876;4.470;2023-04-01T12:19:15;11.20;99.90
19928;DHT22;10126;50.876;4.470;2023-04-01T12:23:52;11.10;99.90
19928;DHT22;10126;50.876;4.470;2023-04-01T12:28:44;11.20;99.90
19928;DHT22;10126;50.876;4.470;2023-04-01T12:33:26;11.20;99.90
19928;DHT22;10126;50.876;4.470;2023-04-01T12:40:50;11.00;99.90
19928;DHT22;10126;50.876;4.470;2023-04-01T12:45:35;11.00;99.90
19928;DHT22;10126;50.876;4.470;2023-04-01T12:50:33;11.00;99.90
19928;DHT22;10126;50.876;4.470;2023-04-01T13:04:39;11.00;99.90
19928;DHT22;10126;50.876;4.470;2023-04-01T13:09:16;11.00;99.90
19928;DHT22;10126;50.876;4.470;2023-04-01T13:15:45;11.10;99.90
19928;DHT22;10126;50.876;4.470;2023-04-01T13:22:17;10.90;99.90
19928;DHT22;10126;50.876;4.470;2023-04-01T13:24:28;10.80;99.90
19928;DHT22;10126;50.876;4.470;2023-04-01T13:33:40;10.60;99.90
19928;DHT22;10126;50.876;4.470;2023-04-01T13:40:45;10.60;99.90
19928;DHT22;10126;50.876;4.470;2023-04-01T13:43:00;10.70;99.90
19928;DHT22;10126;50.876;4.470;2023-04-01T13:45:19;10.70;99.90
19928;DHT22;10126;50.876;4.470;2023-04-01T13:52:49;10.80;99.90
19928;DHT22;10126;50.876;4.470;2023-04-01T13:59:52;10.90;99.90
19928;DHT22;10126;50.876;4.470;2023-04-01T14:02:21;11.00;99.90
19928;DHT22;10126;50.876;4.470;2023-04-01T14:16:51;11.00;99.90
19928;DHT22;10126;50.876;4.470;2023-04-01T14:22:10;10.80;99.90
19928;DHT22;10126;50.876;4.470;2023-04-01T14:24:29;10.90;99.90
19928;DHT22;10126;50.876;4.470;2023-04-01T14:38:42;11.30;99.90
19928;DHT22;10126;50.876;4.470;2023-04-01T14:45:31;11.10;99.90
19928;DHT22;10126;50.876;4.470;2023-04-01T14:47:56;11.20;99.90
19928;DHT22;10126;50.876;4.470;2023-04-01T14:50:19;10.90;99.90
19928;DHT22;10126;50.876;4.470;2023-04-01T14:52:36;11.00;99.90
19928;DHT22;10126;50.876;4.470;2023-04-01T14:54:41;11.10;99.90
19928;DHT22;10126;50.876;4.470;2023-04-01T14:56:47;11.20;99.90
19928;DHT22;10126;50.876;4.470;2023-04-01T14:58:50;11.00;99.90
19928;DHT22;10126;50.876;4.470;2023-04-01T15:03:04;11.00;99.90
19928;DHT22;10126;50.876;4.470;2023-04-01T15:05:23;11.10;99.90
19928;DHT22;10126;50.876;4.470;2023-04-01T15:28:46;11.20;99.90
19928;DHT22;10126;50.876;4.470;2023-04-01T15:35:41;10.90;99.90
19928;DHT22;10126;50.876;4.470;2023-04-01T15:40:30;11.10;99.90
19928;DHT22;10126;50.876;4.470;2023-04-01T15:45:01;11.20;99.90
19928;DHT22;10126;50.876;4.470;2023-04-01T15:49:37;10.90;99.90
19928;DHT22;10126;50.876;4.470;2023-04-01T16:14:56;10.30;99.90
19928;DHT22;10126;50.876;4.470;2023-04-01T16:26:19;10.20;99.90
19928;DHT22;10126;50.876;4.470;2023-04-01T16:30:45;10.30;99.90
19928;DHT22;10126;50.876;4.470;2023-04-01T16:33:22;10.30;99.90
19928;DHT22;10126;50.876;4.470;2023-04-01T16:37:45;10.10;99.90
19928;DHT22;10126;50.876;4.470;2023-04-01T16:44:50;10.10;99.90
19928;DHT22;10126;50.876;4.470;2023-04-01T16:46:53;10.10;99.90
19928;DHT22;10126;50.876;4.470;2023-04-01T16:49:02;10.00;99.90
19928;DHT22;10126;50.876;4.470;2023-04-01T16:51:15;10.00;99.90
19928;DHT22;10126;50.876;4.470;2023-04-01T16:55:21;10.00;99.90
19928;DHT22;10126;50.876;4.470;2023-04-01T16:59:46;9.70;99.90
19928;DHT22;10126;50.876;4.470;2023-04-01T17:11:28;9.90;99.90
19928;DHT22;10126;50.876;4.470;2023-04-01T17:15:46;10.00;99.90
19928;DHT22;10126;50.876;4.470;2023-04-01T17:22:31;9.90;99.90
19928;DHT22;10126;50.876;4.470;2023-04-01T17:27:27;9.80;99.90
19928;DHT22;10126;50.876;4.470;2023-04-01T17:33:55;9.80;99.90
19928;DHT22;10126;50.876;4.470;2023-04-01T17:52:46;9.80;99.90
19928;DHT22;10126;50.876;4.470;2023-04-01T17:57:01;9.80;99.90
19928;DHT22;10126;50.876;4.470;2023-04-01T17:59:36;9.80;99.90
19928;DHT22;10126;50.876;4.470;2023-04-01T18:11:44;9.70;99.90
19928;DHT22;10126;50.876;4.470;2023-04-01T18:16:26;9.60;99.90
19928;DHT22;10126;50.876;4.470;2023-04-01T18:20:54;9.60;99.90
19928;DHT22;10126;50.876;4.470;2023-04-01T18:25:22;9.60;99.90
19928;DHT22;10126;50.876;4.470;2023-04-01T18:29:59;9.80;99.90
19928;DHT22;10126;50.876;4.470;2023-04-01T18:32:34;9.80;99.90
19928;DHT22;10126;50.876;4.470;2023-04-01T18:34:47;9.60;99.90
19928;DHT22;10126;50.876;4.470;2023-04-01T18:37:23;9.60;99.90
19928;DHT22;10126;50.876;4.470;2023-04-01T18:45:26;9.70;99.90
19928;DHT22;10126;50.876;4.470;2023-04-01T18:54:45;9.60;99.90
19928;DHT22;10126;50.876;4.470;2023-04-01T18:56:48;9.60;99.90
19928;DHT22;10126;50.876;4.470;2023-04-01T19:01:47;9.60;99.90
19928;DHT22;10126;50.876;4.470;2023-04-01T19:04:21;9.50;99.90
19928;DHT22;10126;50.876;4.470;2023-04-01T19:06:35;9.50;99.90
19928;DHT22;10126;50.876;4.470;2023-04-01T19:08:41;9.40;99.90
19928;DHT22;10126;50.876;4.470;2023-04-01T19:21:04;9.40;99.90
19928;DHT22;10126;50.876;4.470;2023-04-01T19:25:35;9.40;99.90
19928;DHT22;10126;50.876;4.470;2023-04-01T19:27:49;9.40;99.90
19928;DHT22;10126;50.876;4.470;2023-04-01T19:37:39;9.10;99.90
19928;DHT22;10126;50.876;4.470;2023-04-01T19:46:51;9.20;99.90
19928;DHT22;10126;50.876;4.470;2023-04-01T19:49:09;9.20;99.90
19928;DHT22;10126;50.876;4.470;2023-04-01T19:53:58;9.20;99.90
19928;DHT22;10126;50.876;4.470;2023-04-01T19:56:12;9.20;99.90
19928;DHT22;10126;50.876;4.470;2023-04-01T20:00:53;9.30;99.90
19928;DHT22;10126;50.876;4.470;2023-04-01T20:07:43;9.40;99.90
19928;DHT22;10126;50.876;4.470;2023-04-01T20:09:54;9.40;99.90
19928;DHT22;10126;50.876;4.470;2023-04-01T20:12:13;9.30;99.90
19928;DHT22;10126;50.876;4.470;2023-04-01T20:14:36;9.40;99.90
19928;DHT22;10126;50.876;4.470;2023-04-01T20:18:56;9.20;99.90
19928;DHT22;10126;50.876;4.470;2023-04-01T20:21:26;9.20;99.90
19928;DHT22;10126;50.876;4.470;2023-04-01T20:23:56;9.30;99.90
19928;DHT22;10126;50.876;4.470;2023-04-01T20:26:02;9.40;99.90
19928;DHT22;10126;50.876;4.470;2023-04-01T20:34:50;9.30;99.90
19928;DHT22;10126;50.876;4.470;2023-04-01T20:39:58;9.40;99.90
19928;DHT22;10126;50.876;4.470;2023-04-01T20:42:21;9.30;99.90
19928;DHT22;10126;50.876;4.470;2023-04-01T20:51:31;9.30;99.90
19928;DHT22;10126;50.876;4.470;2023-04-01T21:00:42;9.40;99.90
19928;DHT22;10126;50.876;4.470;2023-04-01T21:05:28;9.30;99.90
19928;DHT22;10126;50.876;4.470;2023-04-01T21:19:01;9.40;99.90
19928;DHT22;10126;50.876;4.470;2023-04-01T21:23:42;9.50;99.90
19928;DHT22;10126;50.876;4.470;2023-04-01T21:26:11;9.50;99.90
19928;DHT22;10126;50.876;4.470;2023-04-01T21:30:29;9.50;99.90
19928;DHT22;10126;50.876;4.470;2023-04-01T21:40:02;9.60;99.90
19928;DHT22;10126;50.876;4.470;2023-04-01T21:49:34;9.70;99.90
19928;DHT22;10126;50.876;4.470;2023-04-01T21:59:29;9.60;99.90
19928;DHT22;10126;50.876;4.470;2023-04-01T22:10:35;9.60;99.90
19928;DHT22;10126;50.876;4.470;2023-04-01T22:12:56;9.60;99.90
19928;DHT22;10126;50.876;4.470;2023-04-01T22:17:41;9.40;99.90
19928;DHT22;10126;50.876;4.470;2023-04-01T22:22:26;9.50;99.90
19928;DHT22;10126;50.876;4.470;2023-04-01T22:26:57;9.30;99.90
19928;DHT22;10126;50.876;4.470;2023-04-01T22:29:20;9.30;99.90
19928;DHT22;10126;50.876;4.470;2023-04-01T22:31:32;9.30;99.90
19928;DHT22;10126;50.876;4.470;2023-04-01T22:33:54;9.30;99.90
19928;DHT22;10126;50.876;4.470;2023-04-01T22:52:23;9.10;99.90
19928;DHT22;10126;50.876;4.470;2023-04-01T22:54:51;9.10;99.90
19928;DHT22;10126;50.876;4.470;2023-04-01T23:01:16;9.10;99.90
19928;DHT22;10126;50.876;4.470;2023-04-01T23:03:35;9.00;99.90
19928;DHT22;10126;50.876;4.470;2023-04-01T23:05:54;9.00;99.90
19928;DHT22;10126;50.876;4.470;2023-04-01T23:10:50;8.90;99.90
19928;DHT22;10126;50.876;4.470;2023-04-01T23:12:59;8.90;99.90
19928;DHT22;10126;50.876;4.470;2023-04-01T23:15:02;8.90;99.90
19928;DHT22;10126;50.876;4.470;2023-04-01T23:19:32;8.90;99.90
19928;DHT22;10126;50.876;4.470;2023-04-01T23:32:38;8.90;99.90
19928;DHT22;10126;50.876;4.470;2023-04-01T23:34:39;8.90;99.90
19928;DHT22;10126;50.876;4.470;2023-04-01T23:36:49;8.80;99.90
19928;DHT22;10126;50.876;4.470;2023-04-01T23:38:51;8.80;99.90
19928;DHT22;10126;50.876;4.470;2023-04-01T23:40:54;8.80;99.90
19928;DHT22;10126;50.876;4.470;2023-04-01T23:42:55;8.70;99.90
19928;DHT22;10126;50.876;4.470;2023-04-01T23:44:58;8.80;99.90
19928;DHT22;10126;50.876;4.470;2023-04-01T23:47:01;8.80;99.90
19928;DHT22;10126;50.876;4.470;2023-04-01T23:49:04;8.80;99.90
19928;DHT22;10126;50.876;4.470;2023-04-01T23:51:18;8.80;99.90
19928;DHT22;10126;50.876;4.470;2023-04-01T23:53:23;8.70;99.90
19928;DHT22;10126;50.876;4.470;2023-04-01T23:55:27;8.70;99.90
19928;DHT22;10126;50.876;4.470;2023-04-01T23:57:32;8.80;99.90
19928;DHT22;10126;50.876;4.470;2023-04-01T23:59:36;8.70;99.90
